sensor_id;sensor_type;location;lat;lon;timestamp;temperature;humidity
70244;DHT22;57634;51.136;17.024;2022-11-20T00:00:55;-0.70;72.80
70244;DHT22;57634;51.136;17.024;2022-11-20T00:03:57;-0.70;72.70
70244;DHT22;57634;51.136;17.024;2022-11-20T00:06:58;-0.70;72.70
70244;DHT22;57634;51.136;17.024;2022-11-20T00:10:00;-0.70;72.70
70244;DHT22;57634;51.136;17.024;2022-11-20T00:13:01;-0.70;72.70
70244;DHT22;57634;51.136;17.024;2022-11-20T00:16:04;-0.70;72.70
70244;DHT22;57634;51.136;17.024;2022-11-20T00:19:06;-0.70;72.70
70244;DHT22;57634;51.136;17.024;2022-11-20T00:22:36;-0.70;72.70
70244;DHT22;57634;51.136;17.024;2022-11-20T00:25:37;-0.70;72.70
70244;DHT22;57634;51.136;17.024;2022-11-20T00:28:39;-0.70;72.70
70244;DHT22;57634;51.136;17.024;2022-11-20T00:31:41;-0.70;72.80
70244;DHT22;57634;51.136;17.024;2022-11-20T00:34:42;-0.60;72.80
70244;DHT22;57634;51.136;17.024;2022-11-20T00:37:43;-0.60;72.80
70244;DHT22;57634;51.136;17.024;2022-11-20T00:40:45;-0.60;72.70
70244;DHT22;57634;51.136;17.024;2022-11-20T00:43:46;-0.70;72.60
70244;DHT22;57634;51.136;17.024;2022-11-20T00:46:48;-0.70;72.50
70244;DHT22;57634;51.136;17.024;2022-11-20T00:49:49;-0.60;72.50
70244;DHT22;57634;51.136;17.024;2022-11-20T00:52:50;-0.70;72.50
70244;DHT22;57634;51.136;17.024;2022-11-20T00:55:57;-0.70;72.50
70244;DHT22;57634;51.136;17.024;2022-11-20T00:58:59;-0.70;72.50
70244;DHT22;57634;51.136;17.024;2022-11-20T01:02:29;-0.70;72.50
70244;DHT22;57634;51.136;17.024;2022-11-20T01:05:34;-0.70;72.60
70244;DHT22;57634;51.136;17.024;2022-11-20T01:08:37;-0.70;72.70
70244;DHT22;57634;51.136;17.024;2022-11-20T01:11:41;-0.70;72.70
70244;DHT22;57634;51.136;17.024;2022-11-20T01:14:42;-0.70;72.70
70244;DHT22;57634;51.136;17.024;2022-11-20T01:17:44;-0.60;72.90
70244;DHT22;57634;51.136;17.024;2022-11-20T01:20:45;-0.70;72.70
70244;DHT22;57634;51.136;17.024;2022-11-20T01:23:48;-0.70;72.90
70244;DHT22;57634;51.136;17.024;2022-11-20T01:26:50;-0.70;72.90
70244;DHT22;57634;51.136;17.024;2022-11-20T01:29:52;-0.70;73.10
70244;DHT22;57634;51.136;17.024;2022-11-20T01:32:55;-0.80;73.10
70244;DHT22;57634;51.136;17.024;2022-11-20T01:36:05;-0.80;73.20
70244;DHT22;57634;51.136;17.024;2022-11-20T01:39:33;-0.80;73.30
70244;DHT22;57634;51.136;17.024;2022-11-20T01:42:34;-0.80;73.40
70244;DHT22;57634;51.136;17.024;2022-11-20T01:52:18;-0.90;73.60
70244;DHT22;57634;51.136;17.024;2022-11-20T01:55:52;-0.90;73.80
70244;DHT22;57634;51.136;17.024;2022-11-20T01:58:58;-1.00;73.90
70244;DHT22;57634;51.136;17.024;2022-11-20T02:02:01;-1.10;74.00
70244;DHT22;57634;51.136;17.024;2022-11-20T02:08:17;-1.20;74.30
70244;DHT22;57634;51.136;17.024;2022-11-20T02:11:19;-1.30;74.50
70244;DHT22;57634;51.136;17.024;2022-11-20T02:14:22;-1.50;74.60
70244;DHT22;57634;51.136;17.024;2022-11-20T02:17:25;-1.50;74.80
70244;DHT22;57634;51.136;17.024;2022-11-20T02:20:27;-1.50;74.90
70244;DHT22;57634;51.136;17.024;2022-11-20T02:24:05;-1.60;74.90
70244;DHT22;57634;51.136;17.024;2022-11-20T02:27:11;-1.60;75.10
70244;DHT22;57634;51.136;17.024;2022-11-20T02:30:13;-1.60;75.20
70244;DHT22;57634;51.136;17.024;2022-11-20T02:33:14;-1.60;75.20
70244;DHT22;57634;51.136;17.024;2022-11-20T02:36:16;-1.60;75.20
70244;DHT22;57634;51.136;17.024;2022-11-20T02:39:19;-1.60;75.30
70244;DHT22;57634;51.136;17.024;2022-11-20T02:42:22;-1.60;75.20
70244;DHT22;57634;51.136;17.024;2022-11-20T02:45:24;-1.60;75.20
70244;DHT22;57634;51.136;17.024;2022-11-20T02:48:25;-1.60;75.30
70244;DHT22;57634;51.136;17.024;2022-11-20T02:51:27;-1.60;75.20
70244;DHT22;57634;51.136;17.024;2022-11-20T02:54:56;-1.60;75.30
70244;DHT22;57634;51.136;17.024;2022-11-20T02:57:57;-1.60;75.30
70244;DHT22;57634;51.136;17.024;2022-11-20T03:00:58;-1.60;75.40
70244;DHT22;57634;51.136;17.024;2022-11-20T03:04:00;-1.60;75.40
70244;DHT22;57634;51.136;17.024;2022-11-20T03:07:01;-1.60;75.40
70244;DHT22;57634;51.136;17.024;2022-11-20T03:10:05;-1.60;75.40
70244;DHT22;57634;51.136;17.024;2022-11-20T03:13:08;-1.70;75.40
70244;DHT22;57634;51.136;17.024;2022-11-20T03:16:14;-1.70;75.40
70244;DHT22;57634;51.136;17.024;2022-11-20T03:19:16;-1.70;75.50
70244;DHT22;57634;51.136;17.024;2022-11-20T03:22:17;-1.70;75.40
70244;DHT22;57634;51.136;17.024;2022-11-20T03:25:19;-1.70;75.50
70244;DHT22;57634;51.136;17.024;2022-11-20T03:28:20;-1.70;75.50
70244;DHT22;57634;51.136;17.024;2022-11-20T03:31:27;-1.70;75.50
70244;DHT22;57634;51.136;17.024;2022-11-20T03:34:55;-1.70;75.40
70244;DHT22;57634;51.136;17.024;2022-11-20T03:37:57;-1.60;75.40
70244;DHT22;57634;51.136;17.024;2022-11-20T03:41:05;-1.60;75.50
70244;DHT22;57634;51.136;17.024;2022-11-20T03:44:09;-1.60;75.40
70244;DHT22;57634;51.136;17.024;2022-11-20T03:47:11;-1.60;75.40
70244;DHT22;57634;51.136;17.024;2022-11-20T03:50:13;-1.60;75.40
70244;DHT22;57634;51.136;17.024;2022-11-20T03:53:16;-1.60;75.40
70244;DHT22;57634;51.136;17.024;2022-11-20T03:56:19;-1.60;75.40
70244;DHT22;57634;51.136;17.024;2022-11-20T03:59:21;-1.60;75.40
70244;DHT22;57634;51.136;17.024;2022-11-20T04:02:22;-1.60;75.40
70244;DHT22;57634;51.136;17.024;2022-11-20T04:05:24;-1.60;75.40
70244;DHT22;57634;51.136;17.024;2022-11-20T04:08:25;-1.60;75.30
70244;DHT22;57634;51.136;17.024;2022-11-20T04:11:52;-1.70;75.20
70244;DHT22;57634;51.136;17.024;2022-11-20T04:14:54;-1.70;75.30
70244;DHT22;57634;51.136;17.024;2022-11-20T04:17:55;-1.80;75.30
70244;DHT22;57634;51.136;17.024;2022-11-20T04:20:57;-1.80;75.30
70244;DHT22;57634;51.136;17.024;2022-11-20T04:23:59;-1.80;75.30
70244;DHT22;57634;51.136;17.024;2022-11-20T04:27:00;-1.90;75.50
70244;DHT22;57634;51.136;17.024;2022-11-20T04:30:01;-2.00;75.70
70244;DHT22;57634;51.136;17.024;2022-11-20T04:33:03;-2.10;75.80
70244;DHT22;57634;51.136;17.024;2022-11-20T04:36:07;-2.20;76.00
70244;DHT22;57634;51.136;17.024;2022-11-20T04:39:12;-2.30;76.30
70244;DHT22;57634;51.136;17.024;2022-11-20T04:42:16;-2.40;76.60
70244;DHT22;57634;51.136;17.024;2022-11-20T04:45:57;-2.50;76.90
70244;DHT22;57634;51.136;17.024;2022-11-20T04:48:59;-2.60;77.30
70244;DHT22;57634;51.136;17.024;2022-11-20T04:52:00;-2.60;77.50
70244;DHT22;57634;51.136;17.024;2022-11-20T04:55:01;-2.60;77.60
70244;DHT22;57634;51.136;17.024;2022-11-20T04:58:02;-2.60;77.80
70244;DHT22;57634;51.136;17.024;2022-11-20T05:01:09;-2.70;77.90
70244;DHT22;57634;51.136;17.024;2022-11-20T05:04:10;-2.60;78.10
70244;DHT22;57634;51.136;17.024;2022-11-20T05:07:11;-2.60;78.10
70244;DHT22;57634;51.136;17.024;2022-11-20T05:10:13;-2.60;78.10
70244;DHT22;57634;51.136;17.024;2022-11-20T05:13:15;-2.60;78.10
70244;DHT22;57634;51.136;17.024;2022-11-20T05:16:22;-2.60;78.00
70244;DHT22;57634;51.136;17.024;2022-11-20T05:19:24;-2.60;78.10
70244;DHT22;57634;51.136;17.024;2022-11-20T05:22:52;-2.70;78.20
70244;DHT22;57634;51.136;17.024;2022-11-20T05:25:54;-2.70;78.40
70244;DHT22;57634;51.136;17.024;2022-11-20T05:28:55;-2.70;78.60
70244;DHT22;57634;51.136;17.024;2022-11-20T05:31:57;-2.80;78.80
70244;DHT22;57634;51.136;17.024;2022-11-20T05:34:58;-2.70;79.10
70244;DHT22;57634;51.136;17.024;2022-11-20T05:38:00;-2.70;79.10
70244;DHT22;57634;51.136;17.024;2022-11-20T05:41:13;-2.70;79.20
70244;DHT22;57634;51.136;17.024;2022-11-20T05:44:15;-2.70;79.30
70244;DHT22;57634;51.136;17.024;2022-11-20T05:47:16;-2.70;79.30
70244;DHT22;57634;51.136;17.024;2022-11-20T05:50:17;-2.70;79.30
70244;DHT22;57634;51.136;17.024;2022-11-20T05:53:18;-2.60;79.40
70244;DHT22;57634;51.136;17.024;2022-11-20T05:56:21;-2.60;79.40
70244;DHT22;57634;51.136;17.024;2022-11-20T05:59:49;-2.60;79.30
70244;DHT22;57634;51.136;17.024;2022-11-20T06:02:51;-2.60;79.30
70244;DHT22;57634;51.136;17.024;2022-11-20T06:05:52;-2.60;79.30
70244;DHT22;57634;51.136;17.024;2022-11-20T06:08:54;-2.70;79.30
70244;DHT22;57634;51.136;17.024;2022-11-20T06:11:56;-2.70;79.40
70244;DHT22;57634;51.136;17.024;2022-11-20T06:14:58;-2.80;79.60
70244;DHT22;57634;51.136;17.024;2022-11-20T06:18:01;-2.80;79.70
70244;DHT22;57634;51.136;17.024;2022-11-20T06:21:11;-2.80;79.90
70244;DHT22;57634;51.136;17.024;2022-11-20T06:24:13;-2.80;80.10
70244;DHT22;57634;51.136;17.024;2022-11-20T06:27:14;-2.80;80.20
70244;DHT22;57634;51.136;17.024;2022-11-20T06:30:15;-2.80;80.40
70244;DHT22;57634;51.136;17.024;2022-11-20T06:33:16;-2.70;80.50
70244;DHT22;57634;51.136;17.024;2022-11-20T06:36:46;-2.60;80.70
70244;DHT22;57634;51.136;17.024;2022-11-20T06:39:48;-2.40;81.00
70244;DHT22;57634;51.136;17.024;2022-11-20T06:42:49;-2.20;81.20
70244;DHT22;57634;51.136;17.024;2022-11-20T06:45:52;-2.00;81.10
70244;DHT22;57634;51.136;17.024;2022-11-20T06:48:54;-1.80;80.80
70244;DHT22;57634;51.136;17.024;2022-11-20T06:51:56;-1.50;80.50
70244;DHT22;57634;51.136;17.024;2022-11-20T06:54:57;-1.30;80.30
70244;DHT22;57634;51.136;17.024;2022-11-20T06:57:58;-1.00;80.10
70244;DHT22;57634;51.136;17.024;2022-11-20T07:01:07;-0.70;79.60
70244;DHT22;57634;51.136;17.024;2022-11-20T07:04:09;-0.40;79.10
70244;DHT22;57634;51.136;17.024;2022-11-20T07:07:10;-0.10;78.50
70244;DHT22;57634;51.136;17.024;2022-11-20T07:10:12;0.20;77.80
70244;DHT22;57634;51.136;17.024;2022-11-20T07:13:14;0.50;77.00
70244;DHT22;57634;51.136;17.024;2022-11-20T07:16:41;0.80;76.20
70244;DHT22;57634;51.136;17.024;2022-11-20T07:19:42;1.10;75.40
70244;DHT22;57634;51.136;17.024;2022-11-20T07:22:44;1.20;74.80
70244;DHT22;57634;51.136;17.024;2022-11-20T07:25:45;1.50;74.10
70244;DHT22;57634;51.136;17.024;2022-11-20T07:28:46;1.70;73.20
70244;DHT22;57634;51.136;17.024;2022-11-20T07:31:48;1.90;72.60
70244;DHT22;57634;51.136;17.024;2022-11-20T07:34:50;2.10;71.80
70244;DHT22;57634;51.136;17.024;2022-11-20T07:37:51;2.30;70.80
70244;DHT22;57634;51.136;17.024;2022-11-20T07:40:57;2.40;70.00
70244;DHT22;57634;51.136;17.024;2022-11-20T07:43:59;2.40;69.80
70244;DHT22;57634;51.136;17.024;2022-11-20T07:47:00;2.60;69.30
70244;DHT22;57634;51.136;17.024;2022-11-20T07:50:01;2.70;69.00
70244;DHT22;57634;51.136;17.024;2022-11-20T07:53:03;2.90;68.00
70244;DHT22;57634;51.136;17.024;2022-11-20T07:56:06;3.00;67.70
70244;DHT22;57634;51.136;17.024;2022-11-20T07:59:33;3.20;67.30
70244;DHT22;57634;51.136;17.024;2022-11-20T08:02:40;3.40;67.00
70244;DHT22;57634;51.136;17.024;2022-11-20T08:05:41;3.50;65.80
70244;DHT22;57634;51.136;17.024;2022-11-20T08:08:42;3.60;65.50
70244;DHT22;57634;51.136;17.024;2022-11-20T08:11:44;3.80;65.40
70244;DHT22;57634;51.136;17.024;2022-11-20T08:14:57;4.10;65.20
70244;DHT22;57634;51.136;17.024;2022-11-20T08:18:10;4.30;64.00
70244;DHT22;57634;51.136;17.024;2022-11-20T08:21:13;4.50;63.30
70244;DHT22;57634;51.136;17.024;2022-11-20T08:24:40;4.70;63.00
70244;DHT22;57634;51.136;17.024;2022-11-20T08:27:42;4.80;62.10
70244;DHT22;57634;51.136;17.024;2022-11-20T08:30:43;5.00;61.50
70244;DHT22;57634;51.136;17.024;2022-11-20T08:33:47;5.10;60.80
70244;DHT22;57634;51.136;17.024;2022-11-20T08:36:48;5.10;60.30
70244;DHT22;57634;51.136;17.024;2022-11-20T08:39:50;5.20;60.10
70244;DHT22;57634;51.136;17.024;2022-11-20T08:42:51;5.20;59.60
70244;DHT22;57634;51.136;17.024;2022-11-20T08:45:53;5.30;59.10
70244;DHT22;57634;51.136;17.024;2022-11-20T08:48:54;5.40;58.80
70244;DHT22;57634;51.136;17.024;2022-11-20T08:51:56;5.50;58.70
70244;DHT22;57634;51.136;17.024;2022-11-20T08:54:57;5.70;58.60
70244;DHT22;57634;51.136;17.024;2022-11-20T08:58:03;5.90;58.20
70244;DHT22;57634;51.136;17.024;2022-11-20T09:01:05;6.20;57.60
70244;DHT22;57634;51.136;17.024;2022-11-20T09:04:33;6.30;57.20
70244;DHT22;57634;51.136;17.024;2022-11-20T09:07:34;6.50;56.20
70244;DHT22;57634;51.136;17.024;2022-11-20T09:10:35;6.40;55.60
70244;DHT22;57634;51.136;17.024;2022-11-20T09:13:40;6.30;55.30
70244;DHT22;57634;51.136;17.024;2022-11-20T09:16:41;6.20;55.10
70244;DHT22;57634;51.136;17.024;2022-11-20T09:19:43;6.30;55.30
70244;DHT22;57634;51.136;17.024;2022-11-20T09:22:44;6.40;55.10
70244;DHT22;57634;51.136;17.024;2022-11-20T09:25:46;6.50;54.70
70244;DHT22;57634;51.136;17.024;2022-11-20T09:28:47;6.60;54.00
70244;DHT22;57634;51.136;17.024;2022-11-20T09:31:48;6.50;53.90
70244;DHT22;57634;51.136;17.024;2022-11-20T09:34:50;6.50;54.00
70244;DHT22;57634;51.136;17.024;2022-11-20T09:37:51;6.60;53.90
70244;DHT22;57634;51.136;17.024;2022-11-20T09:41:03;6.60;53.70
70244;DHT22;57634;51.136;17.024;2022-11-20T09:45:00;6.40;53.30
70244;DHT22;57634;51.136;17.024;2022-11-20T09:47:58;6.20;53.70
70244;DHT22;57634;51.136;17.024;2022-11-20T09:54:19;6.20;53.40
70244;DHT22;57634;51.136;17.024;2022-11-20T09:57:34;6.10;53.70
70244;DHT22;57634;51.136;17.024;2022-11-20T10:04:17;5.90;53.70
70244;DHT22;57634;51.136;17.024;2022-11-20T10:07:23;5.90;53.70
70244;DHT22;57634;51.136;17.024;2022-11-20T10:10:33;5.80;53.90
70244;DHT22;57634;51.136;17.024;2022-11-20T10:20:39;5.80;54.50
70244;DHT22;57634;51.136;17.024;2022-11-20T10:30:41;6.00;53.70
70244;DHT22;57634;51.136;17.024;2022-11-20T10:33:45;5.90;53.40
70244;DHT22;57634;51.136;17.024;2022-11-20T10:37:11;5.80;53.60
70244;DHT22;57634;51.136;17.024;2022-11-20T10:43:27;5.70;53.60
70244;DHT22;57634;51.136;17.024;2022-11-20T10:46:54;5.60;53.90
70244;DHT22;57634;51.136;17.024;2022-11-20T10:50:01;5.50;54.00
70244;DHT22;57634;51.136;17.024;2022-11-20T10:56:31;5.50;54.20
70244;DHT22;57634;51.136;17.024;2022-11-20T10:59:45;5.70;54.30
70244;DHT22;57634;51.136;17.024;2022-11-20T11:03:24;5.80;53.80
70244;DHT22;57634;51.136;17.024;2022-11-20T11:06:35;6.00;53.80
70244;DHT22;57634;51.136;17.024;2022-11-20T11:09:43;6.00;53.40
70244;DHT22;57634;51.136;17.024;2022-11-20T11:12:46;6.00;53.30
70244;DHT22;57634;51.136;17.024;2022-11-20T11:15:49;6.00;53.40
70244;DHT22;57634;51.136;17.024;2022-11-20T11:18:52;6.10;53.40
70244;DHT22;57634;51.136;17.024;2022-11-20T11:22:28;6.20;53.30
70244;DHT22;57634;51.136;17.024;2022-11-20T11:25:32;6.30;53.10
70244;DHT22;57634;51.136;17.024;2022-11-20T11:28:38;6.40;53.10
70244;DHT22;57634;51.136;17.024;2022-11-20T11:31:40;6.40;52.70
70244;DHT22;57634;51.136;17.024;2022-11-20T11:35:52;6.50;52.20
70244;DHT22;57634;51.136;17.024;2022-11-20T11:38:54;6.50;51.50
70244;DHT22;57634;51.136;17.024;2022-11-20T11:41:57;6.60;51.30
70244;DHT22;57634;51.136;17.024;2022-11-20T11:45:00;6.60;51.10
70244;DHT22;57634;51.136;17.024;2022-11-20T11:48:08;6.70;50.70
70244;DHT22;57634;51.136;17.024;2022-11-20T11:51:10;6.80;50.60
70244;DHT22;57634;51.136;17.024;2022-11-20T11:54:19;6.80;50.40
70244;DHT22;57634;51.136;17.024;2022-11-20T12:01:08;6.80;50.40
70244;DHT22;57634;51.136;17.024;2022-11-20T12:07:35;6.90;50.30
70244;DHT22;57634;51.136;17.024;2022-11-20T12:17:32;6.90;50.20
70244;DHT22;57634;51.136;17.024;2022-11-20T12:20:40;6.90;50.30
70244;DHT22;57634;51.136;17.024;2022-11-20T12:31:07;6.70;50.80
70244;DHT22;57634;51.136;17.024;2022-11-20T12:34:09;6.60;51.00
70244;DHT22;57634;51.136;17.024;2022-11-20T12:40:35;6.50;51.40
70244;DHT22;57634;51.136;17.024;2022-11-20T12:57:46;6.20;52.10
70244;DHT22;57634;51.136;17.024;2022-11-20T13:01:02;6.20;52.20
70244;DHT22;57634;51.136;17.024;2022-11-20T13:07:47;6.10;52.70
70244;DHT22;57634;51.136;17.024;2022-11-20T13:10:58;5.90;53.00
70244;DHT22;57634;51.136;17.024;2022-11-20T13:20:29;5.60;53.80
70244;DHT22;57634;51.136;17.024;2022-11-20T13:24:06;5.50;54.10
70244;DHT22;57634;51.136;17.024;2022-11-20T13:30:23;5.20;54.60
70244;DHT22;57634;51.136;17.024;2022-11-20T13:33:33;5.10;54.90
70244;DHT22;57634;51.136;17.024;2022-11-20T13:36:35;5.00;55.10
70244;DHT22;57634;51.136;17.024;2022-11-20T13:39:37;4.80;55.40
70244;DHT22;57634;51.136;17.024;2022-11-20T13:42:51;4.70;55.80
70244;DHT22;57634;51.136;17.024;2022-11-20T13:46:17;4.70;56.10
70244;DHT22;57634;51.136;17.024;2022-11-20T13:49:28;4.60;56.30
70244;DHT22;57634;51.136;17.024;2022-11-20T13:52:43;4.60;56.50
70244;DHT22;57634;51.136;17.024;2022-11-20T14:02:37;4.40;56.80
70244;DHT22;57634;51.136;17.024;2022-11-20T14:05:40;4.30;57.10
70244;DHT22;57634;51.136;17.024;2022-11-20T14:08:49;4.20;57.10
70244;DHT22;57634;51.136;17.024;2022-11-20T14:11:52;4.10;57.20
70244;DHT22;57634;51.136;17.024;2022-11-20T14:14:54;4.00;57.40
70244;DHT22;57634;51.136;17.024;2022-11-20T14:17:57;4.00;57.50
70244;DHT22;57634;51.136;17.024;2022-11-20T14:21:00;3.90;57.70
70244;DHT22;57634;51.136;17.024;2022-11-20T14:24:06;3.80;57.90
70244;DHT22;57634;51.136;17.024;2022-11-20T14:27:17;3.80;58.00
70244;DHT22;57634;51.136;17.024;2022-11-20T14:30:47;3.70;58.20
70244;DHT22;57634;51.136;17.024;2022-11-20T14:33:48;3.60;58.30
70244;DHT22;57634;51.136;17.024;2022-11-20T14:36:57;3.60;58.40
70244;DHT22;57634;51.136;17.024;2022-11-20T14:40:00;3.50;58.50
70244;DHT22;57634;51.136;17.024;2022-11-20T14:43:17;3.50;58.60
70244;DHT22;57634;51.136;17.024;2022-11-20T14:46:14;3.50;58.70
70244;DHT22;57634;51.136;17.024;2022-11-20T14:49:16;3.40;58.80
70244;DHT22;57634;51.136;17.024;2022-11-20T14:52:20;3.40;58.90
70244;DHT22;57634;51.136;17.024;2022-11-20T14:55:32;3.30;58.90
70244;DHT22;57634;51.136;17.024;2022-11-20T14:58:59;3.30;59.00
70244;DHT22;57634;51.136;17.024;2022-11-20T15:02:05;3.30;59.20
70244;DHT22;57634;51.136;17.024;2022-11-20T15:05:07;3.20;59.30
70244;DHT22;57634;51.136;17.024;2022-11-20T15:08:09;3.20;59.50
70244;DHT22;57634;51.136;17.024;2022-11-20T15:11:25;3.10;59.60
70244;DHT22;57634;51.136;17.024;2022-11-20T15:14:27;3.10;59.80
70244;DHT22;57634;51.136;17.024;2022-11-20T15:17:31;3.00;60.00
70244;DHT22;57634;51.136;17.024;2022-11-20T15:20:33;3.00;60.20
70244;DHT22;57634;51.136;17.024;2022-11-20T15:23:37;3.00;60.40
70244;DHT22;57634;51.136;17.024;2022-11-20T15:27:04;2.90;60.50
70244;DHT22;57634;51.136;17.024;2022-11-20T15:33:18;2.90;61.00
70244;DHT22;57634;51.136;17.024;2022-11-20T15:36:19;2.80;61.20
70244;DHT22;57634;51.136;17.024;2022-11-20T15:39:21;2.80;61.40
70244;DHT22;57634;51.136;17.024;2022-11-20T15:42:22;2.80;61.60
70244;DHT22;57634;51.136;17.024;2022-11-20T15:45:24;2.80;61.80
70244;DHT22;57634;51.136;17.024;2022-11-20T15:48:28;2.70;62.00
70244;DHT22;57634;51.136;17.024;2022-11-20T15:51:32;2.70;62.20
70244;DHT22;57634;51.136;17.024;2022-11-20T15:54:34;2.70;62.40
70244;DHT22;57634;51.136;17.024;2022-11-20T15:57:35;2.60;62.50
70244;DHT22;57634;51.136;17.024;2022-11-20T16:01:03;2.60;62.80
70244;DHT22;57634;51.136;17.024;2022-11-20T16:04:08;2.60;63.10
70244;DHT22;57634;51.136;17.024;2022-11-20T16:07:10;2.60;63.30
70244;DHT22;57634;51.136;17.024;2022-11-20T16:10:11;2.50;63.50
70244;DHT22;57634;51.136;17.024;2022-11-20T16:13:15;2.50;63.60
70244;DHT22;57634;51.136;17.024;2022-11-20T16:16:32;2.40;63.80
70244;DHT22;57634;51.136;17.024;2022-11-20T16:19:34;2.40;64.00
70244;DHT22;57634;51.136;17.024;2022-11-20T16:22:35;2.40;64.20
70244;DHT22;57634;51.136;17.024;2022-11-20T16:25:36;2.30;64.40
70244;DHT22;57634;51.136;17.024;2022-11-20T16:28:38;2.30;64.50
70244;DHT22;57634;51.136;17.024;2022-11-20T16:32:05;2.30;64.60
70244;DHT22;57634;51.136;17.024;2022-11-20T16:35:06;2.20;64.80
70244;DHT22;57634;51.136;17.024;2022-11-20T16:38:09;2.20;65.00
70244;DHT22;57634;51.136;17.024;2022-11-20T16:41:10;2.20;65.00
70244;DHT22;57634;51.136;17.024;2022-11-20T16:44:14;2.10;65.20
70244;DHT22;57634;51.136;17.024;2022-11-20T16:47:16;2.10;65.40
70244;DHT22;57634;51.136;17.024;2022-11-20T16:50:17;2.00;65.60
70244;DHT22;57634;51.136;17.024;2022-11-20T16:53:20;2.00;65.70
70244;DHT22;57634;51.136;17.024;2022-11-20T16:56:24;2.00;65.90
70244;DHT22;57634;51.136;17.024;2022-11-20T16:59:26;1.90;66.00
70244;DHT22;57634;51.136;17.024;2022-11-20T17:02:27;1.90;66.20
70244;DHT22;57634;51.136;17.024;2022-11-20T17:05:29;1.90;66.30
70244;DHT22;57634;51.136;17.024;2022-11-20T17:08:31;1.90;66.50
70244;DHT22;57634;51.136;17.024;2022-11-20T17:11:58;1.90;66.70
70244;DHT22;57634;51.136;17.024;2022-11-20T17:15:00;1.80;66.90
70244;DHT22;57634;51.136;17.024;2022-11-20T17:18:01;1.80;67.10
70244;DHT22;57634;51.136;17.024;2022-11-20T17:21:04;1.80;67.20
70244;DHT22;57634;51.136;17.024;2022-11-20T17:24:08;1.80;67.40
70244;DHT22;57634;51.136;17.024;2022-11-20T17:27:10;1.80;67.50
70244;DHT22;57634;51.136;17.024;2022-11-20T17:30:11;1.70;67.60
70244;DHT22;57634;51.136;17.024;2022-11-20T17:33:13;1.70;67.70
70244;DHT22;57634;51.136;17.024;2022-11-20T17:36:16;1.60;67.90
70244;DHT22;57634;51.136;17.024;2022-11-20T17:39:17;1.50;68.10
70244;DHT22;57634;51.136;17.024;2022-11-20T17:42:19;1.50;68.40
70244;DHT22;57634;51.136;17.024;2022-11-20T17:45:27;1.40;68.50
70244;DHT22;57634;51.136;17.024;2022-11-20T17:48:55;1.40;68.60
70244;DHT22;57634;51.136;17.024;2022-11-20T17:51:56;1.40;68.80
70244;DHT22;57634;51.136;17.024;2022-11-20T17:54:57;1.30;68.90
70244;DHT22;57634;51.136;17.024;2022-11-20T17:57:59;1.30;69.00
70244;DHT22;57634;51.136;17.024;2022-11-20T18:01:07;1.30;69.20
70244;DHT22;57634;51.136;17.024;2022-11-20T18:04:09;1.30;69.40
70244;DHT22;57634;51.136;17.024;2022-11-20T18:07:11;1.20;69.30
70244;DHT22;57634;51.136;17.024;2022-11-20T18:10:12;1.20;69.40
70244;DHT22;57634;51.136;17.024;2022-11-20T18:13:14;1.20;69.60
70244;DHT22;57634;51.136;17.024;2022-11-20T18:16:16;1.20;69.70
70244;DHT22;57634;51.136;17.024;2022-11-20T18:19:20;1.10;69.80
70244;DHT22;57634;51.136;17.024;2022-11-20T18:22:22;1.20;70.00
70244;DHT22;57634;51.136;17.024;2022-11-20T18:25:50;1.10;70.00
70244;DHT22;57634;51.136;17.024;2022-11-20T18:28:52;1.10;70.00
70244;DHT22;57634;51.136;17.024;2022-11-20T18:31:53;1.10;70.10
70244;DHT22;57634;51.136;17.024;2022-11-20T18:34:55;1.10;70.20
70244;DHT22;57634;51.136;17.024;2022-11-20T18:37:56;1.10;70.30
70244;DHT22;57634;51.136;17.024;2022-11-20T18:40:58;1.00;70.40
70244;DHT22;57634;51.136;17.024;2022-11-20T18:44:00;1.00;70.40
70244;DHT22;57634;51.136;17.024;2022-11-20T18:47:17;1.00;70.50
70244;DHT22;57634;51.136;17.024;2022-11-20T18:50:18;0.90;70.50
70244;DHT22;57634;51.136;17.024;2022-11-20T18:53:19;0.90;70.60
70244;DHT22;57634;51.136;17.024;2022-11-20T18:56:20;0.90;70.60
70244;DHT22;57634;51.136;17.024;2022-11-20T18:59:50;0.90;70.70
70244;DHT22;57634;51.136;17.024;2022-11-20T19:02:53;0.90;71.00
70244;DHT22;57634;51.136;17.024;2022-11-20T19:05:55;0.80;71.20
70244;DHT22;57634;51.136;17.024;2022-11-20T19:08:56;0.90;71.50
70244;DHT22;57634;51.136;17.024;2022-11-20T19:11:58;0.90;71.60
70244;DHT22;57634;51.136;17.024;2022-11-20T19:14:59;0.90;71.60
70244;DHT22;57634;51.136;17.024;2022-11-20T19:18:01;1.00;71.60
70244;DHT22;57634;51.136;17.024;2022-11-20T19:21:09;1.00;71.50
70244;DHT22;57634;51.136;17.024;2022-11-20T19:24:12;1.00;71.40
70244;DHT22;57634;51.136;17.024;2022-11-20T19:27:14;1.00;71.50
70244;DHT22;57634;51.136;17.024;2022-11-20T19:30:15;1.00;71.60
70244;DHT22;57634;51.136;17.024;2022-11-20T19:33:17;1.00;71.80
70244;DHT22;57634;51.136;17.024;2022-11-20T19:36:47;1.10;71.80
70244;DHT22;57634;51.136;17.024;2022-11-20T19:39:48;1.10;71.70
70244;DHT22;57634;51.136;17.024;2022-11-20T19:42:49;1.10;71.80
70244;DHT22;57634;51.136;17.024;2022-11-20T19:45:51;1.00;71.80
70244;DHT22;57634;51.136;17.024;2022-11-20T19:48:54;1.00;72.00
70244;DHT22;57634;51.136;17.024;2022-11-20T19:51:55;1.00;72.10
70244;DHT22;57634;51.136;17.024;2022-11-20T19:54:56;1.10;72.20
70244;DHT22;57634;51.136;17.024;2022-11-20T19:57:57;1.10;72.30
70244;DHT22;57634;51.136;17.024;2022-11-20T20:01:09;1.10;72.40
70244;DHT22;57634;51.136;17.024;2022-11-20T20:04:11;1.10;72.30
70244;DHT22;57634;51.136;17.024;2022-11-20T20:07:12;1.10;72.40
70244;DHT22;57634;51.136;17.024;2022-11-20T20:10:14;1.10;72.40
70244;DHT22;57634;51.136;17.024;2022-11-20T20:13:45;1.10;72.40
70244;DHT22;57634;51.136;17.024;2022-11-20T20:16:46;1.00;72.40
70244;DHT22;57634;51.136;17.024;2022-11-20T20:19:48;1.00;72.40
70244;DHT22;57634;51.136;17.024;2022-11-20T20:22:49;1.00;72.40
70244;DHT22;57634;51.136;17.024;2022-11-20T20:25:50;1.00;72.50
70244;DHT22;57634;51.136;17.024;2022-11-20T20:28:51;0.90;72.60
70244;DHT22;57634;51.136;17.024;2022-11-20T20:31:53;0.90;72.80
70244;DHT22;57634;51.136;17.024;2022-11-20T20:34:54;0.80;72.90
70244;DHT22;57634;51.136;17.024;2022-11-20T20:37:56;0.80;73.00
70244;DHT22;57634;51.136;17.024;2022-11-20T20:40:57;0.80;73.10
70244;DHT22;57634;51.136;17.024;2022-11-20T20:44:00;0.80;73.10
70244;DHT22;57634;51.136;17.024;2022-11-20T20:47:42;0.70;73.10
70244;DHT22;57634;51.136;17.024;2022-11-20T20:53:58;0.70;73.40
70244;DHT22;57634;51.136;17.024;2022-11-20T20:57:00;0.70;73.50
70244;DHT22;57634;51.136;17.024;2022-11-20T21:00:03;0.70;73.60
70244;DHT22;57634;51.136;17.024;2022-11-20T21:03:05;0.60;73.60
70244;DHT22;57634;51.136;17.024;2022-11-20T21:06:08;0.60;73.80
70244;DHT22;57634;51.136;17.024;2022-11-20T21:09:10;0.60;73.90